Sbi Perseus — D5KQ9 — position and weather

sailwx.info

Track history (hours):
 
Tides and Currents Weather Stations Pressure Air Temp Water Temp Dewpoint Dewpoint Depression Visibility Wind Speed Wind Dir Waves Ship Positions

Sbi Perseus

Last reported at 2017-Oct-15 19:51 UTC. Time now 2017-Oct-17 05:41 UTC.
Position N 35°49' E 016°02'.

Length 200 m; draft 12.2 m.

Type: Cargo ship. MMSI: 636017388.

Date/timePositionNaut miles runAvg speedWind from/ knotsBaromVisibWave heightAir tempDewpointWater temp
2017-Oct-15 19:51N 35°49' E 016°02'3613.1
2017-Oct-15 17:05N 36°00' E 015°20'413.4
2017-Oct-15 16:49N 36°02' E 015°15'913.3
2017-Oct-15 16:08N 36°05' E 015°05'213.3
2017-Oct-15 16:00N 36°05' E 015°03'713.4
2017-Oct-15 15:30N 36°08' E 014°55'813.4
2017-Oct-15 14:56N 36°10' E 014°46'1213.4
2017-Oct-15 14:00N 36°14' E 014°31'713.5
2017-Oct-15 13:30N 36°16' E 014°23'713.4
2017-Oct-15 13:00N 36°18' E 014°16'713.5
2017-Oct-15 12:30N 36°20' E 014°08'713.6
2017-Oct-15 12:00N 36°23' E 013°60'713.5
2017-Oct-15 11:30N 36°26' E 013°52'713.5
2017-Oct-15 10:59N 36°29' E 013°44'613.4
2017-Oct-15 10:30N 36°31' E 013°37'713.3
2017-Oct-15 10:00N 36°34' E 013°29'713.3
2017-Oct-15 09:30N 36°37' E 013°22'1713.2
2017-Oct-15 08:14N 36°43' E 013°02'41512.8
2017-Oct-13 23:55N 37°17' E 004°25'513.0
2017-Oct-13 23:30N 37°17' E 004°18'713.2
2017-Oct-13 23:00N 37°15' E 004°10'713.1
2017-Oct-13 22:30N 37°15' E 004°02'713.2
2017-Oct-13 22:00N 37°14' E 003°54'713.1
2017-Oct-13 21:30N 37°13' E 003°45'713.1
2017-Oct-13 21:00N 37°12' E 003°37'713.1
2017-Oct-13 20:30N 37°12' E 003°29'713.1
2017-Oct-13 20:00N 37°11' E 003°21'713.3
2017-Oct-13 19:30N 37°10' E 003°13'713.3
2017-Oct-13 19:00N 37°09' E 003°04'713.1
2017-Oct-13 18:30N 37°08' E 002°56'713.4
2017-Oct-13 18:00N 37°07' E 002°48'713.2
2017-Oct-13 17:30N 37°06' E 002°40'713.1
2017-Oct-13 17:00N 37°04' E 002°32'713.0
2017-Oct-13 16:30N 37°03' E 002°24'713.2
2017-Oct-13 16:00N 37°02' E 002°15'713.3
2017-Oct-13 15:30N 37°01' E 002°07'713.5
2017-Oct-13 15:00N 36°59' E 001°59'713.7
2017-Oct-13 14:30N 36°58' E 001°51'713.7
2017-Oct-13 14:00N 36°57' E 001°42'713.6
2017-Oct-13 13:30N 36°55' E 001°34'713.6
2017-Oct-13 12:58N 36°54' E 001°25'713.8
2017-Oct-13 12:30N 36°53' E 001°17'1013.8
2017-Oct-13 11:46N 36°50' E 001°05'612.9
2017-Oct-13 11:20N 36°49' E 000°58'513.1
2017-Oct-13 10:57N 36°48' E 000°52'613.4
2017-Oct-13 10:30N 36°48' E 000°44'713.6
2017-Oct-13 10:00N 36°47' E 000°36'713.6
2017-Oct-13 09:30N 36°46' E 000°28'813.6
2017-Oct-13 08:54N 36°44' E 000°18'513.6
2017-Oct-13 08:30N 36°43' E 000°11'713.6
2017-Oct-13 08:00N 36°42' E 000°03'713.7
2017-Oct-13 07:30N 36°40' W 000°06'713.8
2017-Oct-13 06:59N 36°39' W 000°14'713.7
2017-Oct-13 06:30N 36°37' W 000°22'713.6
2017-Oct-13 06:00N 36°36' W 000°31'713.5
2017-Oct-13 05:30N 36°35' W 000°39'713.7
2017-Oct-13 05:00N 36°34' W 000°47'713.7
2017-Oct-13 04:28N 36°33' W 000°57'713.5
2017-Oct-13 03:57N 36°32' W 001°05'613.8
2017-Oct-13 03:30N 36°31' W 001°13'713.8
2017-Oct-13 03:00N 36°29' W 001°21'713.9
2017-Oct-13 02:30N 36°28' W 001°29'1914.2
2017-Oct-13 01:11N 36°24' W 001°52'214.0
2017-Oct-13 01:00N 36°24' W 001°55'2514.1
2017-Oct-12 23:14N 36°20' W 002°26'13413.7
2017-Oct-12 13:30N 36°06' W 005°10'713.5
2017-Oct-12 12:59N 36°05' W 005°19'4 9.4
2017-Oct-12 12:31N 36°08' W 005°24'1 0.1
2017-Oct-12 05:39N 36°08' W 005°23'0 0.1
2017-Oct-12 05:30N 36°08' W 005°23'0 0.0
2017-Oct-12 04:54N 36°08' W 005°23'0 0.1
2017-Oct-12 04:27N 36°08' W 005°23'0 0.0
2017-Oct-12 04:00N 36°08' W 005°23'0 0.0
2017-Oct-12 00:03N 36°08' W 005°23'0 3.0
2017-Oct-11 23:57N 36°08' W 005°23'3 6.6
2017-Oct-11 23:30N 36°05' W 005°22'510.4
2017-Oct-11 23:00N 35°60' W 005°21'612.3
2017-Oct-11 22:30N 35°58' W 005°28'612.5
2017-Oct-11 22:00N 35°56' W 005°36'3813.3
2017-Oct-11 19:10N 35°54' W 006°22'213.2
2017-Oct-11 19:00N 35°54' W 006°25'23712.5
2017-Oct-11 00:01N 35°55' W 011°18'612.8
2017-Oct-10 23:30N 35°56' W 011°26'612.8
2017-Oct-10 23:01N 35°56' W 011°34'612.8
2017-Oct-10 22:30N 35°56' W 011°42'612.6
2017-Oct-10 22:01N 35°56' W 011°49'612.9
2017-Oct-10 21:31N 35°55' W 011°57'713.0
2017-Oct-10 21:01N 35°56' W 012°05'612.8
2017-Oct-10 20:31N 35°56' W 012°13'713.0
2017-Oct-10 20:01N 35°55' W 012°21'713.1
2017-Oct-10 19:31N 35°55' W 012°29'713.0
2017-Oct-10 19:01N 35°55' W 012°37'612.9
2017-Oct-10 18:30N 35°56' W 012°45'612.8
2017-Oct-10 18:00N 35°56' W 012°53'612.9
2017-Oct-10 17:31N 35°56' W 013°01'613.0
2017-Oct-10 17:01N 35°56' W 013°09'713.1
2017-Oct-10 16:31N 35°56' W 013°17'713.1
2017-Oct-10 16:01N 35°56' W 013°25'713.0
2017-Oct-10 15:30N 35°56' W 013°33'612.8
2017-Oct-10 15:01N 35°56' W 013°41'1313.0
2017-Oct-10 14:00N 35°56' W 013°57'713.1
2017-Oct-10 13:28N 35°56' W 014°06'613.2
2017-Oct-10 13:01N 35°56' W 014°13'612.8
2017-Oct-10 12:30N 35°56' W 014°21'712.6
2017-Oct-10 11:59N 35°56' W 014°29'612.8
2017-Oct-10 11:29N 35°56' W 014°37'613.1
2017-Oct-10 11:01N 35°57' W 014°45'813.2
2017-Oct-10 10:25N 35°57' W 014°55'612.8
2017-Oct-10 09:55N 35°57' W 015°03'512.7
2017-Oct-10 09:31N 35°57' W 015°09'612.8
2017-Oct-10 09:00N 35°57' W 015°17'613.0
2017-Oct-10 08:31N 35°57' W 015°25'612.9
2017-Oct-10 08:00N 35°57' W 015°33'713.0
2017-Oct-10 07:28N 35°57' W 015°42'613.1
2017-Oct-10 07:01N 35°57' W 015°49'713.1
2017-Oct-10 06:30N 35°57' W 015°57'812.9
2017-Oct-10 05:52N 35°57' W 016°07'712.9
2017-Oct-10 05:21N 35°57' W 016°15'613.1
2017-Oct-10 04:52N 35°57' W 016°23'512.9
2017-Oct-10 04:30N 35°57' W 016°29'813.0
2017-Oct-10 03:53N 35°57' W 016°39'512.8
2017-Oct-10 03:30N 35°57' W 016°45'912.9
2017-Oct-10 02:46N 35°57' W 016°57'312.8
2017-Oct-10 02:30N 35°57' W 017°01'612.8
2017-Oct-10 02:00N 35°57' W 017°09'912.8
2017-Oct-10 01:18N 35°57' W 017°20'412.9
2017-Oct-10 00:58N 35°58' W 017°25'1012.9
2017-Oct-10 00:13N 35°58' W 017°37'312.7
2017-Oct-10 00:00N 35°58' W 017°41'612.8
2017-Oct-09 23:30N 35°58' W 017°48'612.8
2017-Oct-09 23:00N 35°57' W 017°56'712.8
2017-Oct-09 22:29N 35°57' W 018°05'612.6
2017-Oct-09 22:00N 35°57' W 018°12'712.6
2017-Oct-09 21:26N 35°57' W 018°21'512.6
2017-Oct-09 21:01N 35°58' W 018°28'612.5
2017-Oct-09 20:30N 35°58' W 018°35'612.4
2017-Oct-09 19:59N 35°58' W 018°43'25513.0
2017-Oct-09 00:25N 35°60' W 023°58'513.4
2017-Oct-09 00:00N 35°60' W 024°05'1113.4
2017-Oct-08 23:10N 35°60' W 024°19'213.3
2017-Oct-08 23:01N 35°60' W 024°22'713.3
2017-Oct-08 22:30N 35°60' W 024°30'713.4
2017-Oct-08 22:00N 35°60' W 024°38'713.4
2017-Oct-08 21:31N 36°00' W 024°46'713.4
2017-Oct-08 21:00N 36°00' W 024°55'713.3
2017-Oct-08 20:30N 35°60' W 025°03'713.5
2017-Oct-08 20:01N 35°58' W 025°11'713.5
2017-Oct-08 19:30N 35°56' W 025°19'713.5
2017-Oct-08 19:00N 35°55' W 025°27'713.7
2017-Oct-08 18:31N 35°53' W 025°35'713.4
2017-Oct-08 18:00N 35°52' W 025°43'713.4
2017-Oct-08 17:30N 35°50' W 025°51'713.2
2017-Oct-08 17:00N 35°49' W 025°60'  
Track history (hours):
 
Tides and Currents Weather Stations Pressure Air Temp Water Temp Dewpoint Dewpoint Depression Visibility Wind Speed Wind Dir Waves Ship Positions

Sbi Perseus

Last reported at 2017-Oct-15 19:51 UTC. Time now 2017-Oct-17 05:41 UTC.
Position N 35°49' E 016°02'.

Length 200 m; draft 12.2 m.

Type: Cargo ship. MMSI: 636017388.

Date/timePositionNaut miles runAvg speedWind from/ knotsBaromVisibWave heightAir tempDewpointWater temp
2017-Oct-15 19:51N 35°49' E 016°02'3613.1
2017-Oct-15 17:05N 36°00' E 015°20'413.4
2017-Oct-15 16:49N 36°02' E 015°15'913.3
2017-Oct-15 16:08N 36°05' E 015°05'213.3
2017-Oct-15 16:00N 36°05' E 015°03'713.4
2017-Oct-15 15:30N 36°08' E 014°55'813.4
2017-Oct-15 14:56N 36°10' E 014°46'1213.4
2017-Oct-15 14:00N 36°14' E 014°31'713.5
2017-Oct-15 13:30N 36°16' E 014°23'713.4
2017-Oct-15 13:00N 36°18' E 014°16'713.5
2017-Oct-15 12:30N 36°20' E 014°08'713.6
2017-Oct-15 12:00N 36°23' E 013°60'713.5
2017-Oct-15 11:30N 36°26' E 013°52'713.5
2017-Oct-15 10:59N 36°29' E 013°44'613.4
2017-Oct-15 10:30N 36°31' E 013°37'713.3
2017-Oct-15 10:00N 36°34' E 013°29'713.3
2017-Oct-15 09:30N 36°37' E 013°22'1713.2
2017-Oct-15 08:14N 36°43' E 013°02'41512.8
2017-Oct-13 23:55N 37°17' E 004°25'513.0
2017-Oct-13 23:30N 37°17' E 004°18'713.2
2017-Oct-13 23:00N 37°15' E 004°10'713.1
2017-Oct-13 22:30N 37°15' E 004°02'713.2
2017-Oct-13 22:00N 37°14' E 003°54'713.1
2017-Oct-13 21:30N 37°13' E 003°45'713.1
2017-Oct-13 21:00N 37°12' E 003°37'713.1
2017-Oct-13 20:30N 37°12' E 003°29'713.1
2017-Oct-13 20:00N 37°11' E 003°21'713.3
2017-Oct-13 19:30N 37°10' E 003°13'713.3
2017-Oct-13 19:00N 37°09' E 003°04'713.1
2017-Oct-13 18:30N 37°08' E 002°56'713.4
2017-Oct-13 18:00N 37°07' E 002°48'713.2
2017-Oct-13 17:30N 37°06' E 002°40'713.1
2017-Oct-13 17:00N 37°04' E 002°32'713.0
2017-Oct-13 16:30N 37°03' E 002°24'713.2
2017-Oct-13 16:00N 37°02' E 002°15'713.3
2017-Oct-13 15:30N 37°01' E 002°07'713.5
2017-Oct-13 15:00N 36°59' E 001°59'713.7
2017-Oct-13 14:30N 36°58' E 001°51'713.7
2017-Oct-13 14:00N 36°57' E 001°42'713.6
2017-Oct-13 13:30N 36°55' E 001°34'713.6
2017-Oct-13 12:58N 36°54' E 001°25'713.8
2017-Oct-13 12:30N 36°53' E 001°17'1013.8
2017-Oct-13 11:46N 36°50' E 001°05'612.9
2017-Oct-13 11:20N 36°49' E 000°58'513.1
2017-Oct-13 10:57N 36°48' E 000°52'613.4
2017-Oct-13 10:30N 36°48' E 000°44'713.6
2017-Oct-13 10:00N 36°47' E 000°36'713.6
2017-Oct-13 09:30N 36°46' E 000°28'813.6
2017-Oct-13 08:54N 36°44' E 000°18'513.6
2017-Oct-13 08:30N 36°43' E 000°11'713.6
2017-Oct-13 08:00N 36°42' E 000°03'713.7
2017-Oct-13 07:30N 36°40' W 000°06'713.8
2017-Oct-13 06:59N 36°39' W 000°14'713.7
2017-Oct-13 06:30N 36°37' W 000°22'713.6
2017-Oct-13 06:00N 36°36' W 000°31'713.5
2017-Oct-13 05:30N 36°35' W 000°39'713.7
2017-Oct-13 05:00N 36°34' W 000°47'713.7
2017-Oct-13 04:28N 36°33' W 000°57'713.5
2017-Oct-13 03:57N 36°32' W 001°05'613.8
2017-Oct-13 03:30N 36°31' W 001°13'713.8
2017-Oct-13 03:00N 36°29' W 001°21'713.9
2017-Oct-13 02:30N 36°28' W 001°29'1914.2
2017-Oct-13 01:11N 36°24' W 001°52'214.0
2017-Oct-13 01:00N 36°24' W 001°55'2514.1
2017-Oct-12 23:14N 36°20' W 002°26'13413.7
2017-Oct-12 13:30N 36°06' W 005°10'713.5
2017-Oct-12 12:59N 36°05' W 005°19'4 9.4
2017-Oct-12 12:31N 36°08' W 005°24'1 0.1
2017-Oct-12 05:39N 36°08' W 005°23'0 0.1
2017-Oct-12 05:30N 36°08' W 005°23'0 0.0
2017-Oct-12 04:54N 36°08' W 005°23'0 0.1
2017-Oct-12 04:27N 36°08' W 005°23'0 0.0
2017-Oct-12 04:00N 36°08' W 005°23'0 0.0
2017-Oct-12 00:03N 36°08' W 005°23'0 3.0
2017-Oct-11 23:57N 36°08' W 005°23'3 6.6
2017-Oct-11 23:30N 36°05' W 005°22'510.4
2017-Oct-11 23:00N 35°60' W 005°21'612.3
2017-Oct-11 22:30N 35°58' W 005°28'612.5
2017-Oct-11 22:00N 35°56' W 005°36'3813.3
2017-Oct-11 19:10N 35°54' W 006°22'213.2
2017-Oct-11 19:00N 35°54' W 006°25'23712.5
2017-Oct-11 00:01N 35°55' W 011°18'612.8
2017-Oct-10 23:30N 35°56' W 011°26'612.8
2017-Oct-10 23:01N 35°56' W 011°34'612.8
2017-Oct-10 22:30N 35°56' W 011°42'612.6
2017-Oct-10 22:01N 35°56' W 011°49'612.9
2017-Oct-10 21:31N 35°55' W 011°57'713.0
2017-Oct-10 21:01N 35°56' W 012°05'612.8
2017-Oct-10 20:31N 35°56' W 012°13'713.0
2017-Oct-10 20:01N 35°55' W 012°21'713.1
2017-Oct-10 19:31N 35°55' W 012°29'713.0
2017-Oct-10 19:01N 35°55' W 012°37'612.9
2017-Oct-10 18:30N 35°56' W 012°45'612.8
2017-Oct-10 18:00N 35°56' W 012°53'612.9
2017-Oct-10 17:31N 35°56' W 013°01'613.0
2017-Oct-10 17:01N 35°56' W 013°09'713.1
2017-Oct-10 16:31N 35°56' W 013°17'713.1
2017-Oct-10 16:01N 35°56' W 013°25'713.0
2017-Oct-10 15:30N 35°56' W 013°33'612.8
2017-Oct-10 15:01N 35°56' W 013°41'1313.0
2017-Oct-10 14:00N 35°56' W 013°57'713.1
2017-Oct-10 13:28N 35°56' W 014°06'613.2
2017-Oct-10 13:01N 35°56' W 014°13'612.8
2017-Oct-10 12:30N 35°56' W 014°21'712.6
2017-Oct-10 11:59N 35°56' W 014°29'612.8
2017-Oct-10 11:29N 35°56' W 014°37'613.1
2017-Oct-10 11:01N 35°57' W 014°45'813.2
2017-Oct-10 10:25N 35°57' W 014°55'612.8
2017-Oct-10 09:55N 35°57' W 015°03'512.7
2017-Oct-10 09:31N 35°57' W 015°09'612.8
2017-Oct-10 09:00N 35°57' W 015°17'613.0
2017-Oct-10 08:31N 35°57' W 015°25'612.9
2017-Oct-10 08:00N 35°57' W 015°33'713.0
2017-Oct-10 07:28N 35°57' W 015°42'613.1
2017-Oct-10 07:01N 35°57' W 015°49'713.1
2017-Oct-10 06:30N 35°57' W 015°57'812.9
2017-Oct-10 05:52N 35°57' W 016°07'712.9
2017-Oct-10 05:21N 35°57' W 016°15'613.1
2017-Oct-10 04:52N 35°57' W 016°23'512.9
2017-Oct-10 04:30N 35°57' W 016°29'813.0
2017-Oct-10 03:53N 35°57' W 016°39'512.8
2017-Oct-10 03:30N 35°57' W 016°45'912.9
2017-Oct-10 02:46N 35°57' W 016°57'312.8
2017-Oct-10 02:30N 35°57' W 017°01'612.8
2017-Oct-10 02:00N 35°57' W 017°09'912.8
2017-Oct-10 01:18N 35°57' W 017°20'412.9
2017-Oct-10 00:58N 35°58' W 017°25'1012.9
2017-Oct-10 00:13N 35°58' W 017°37'312.7
2017-Oct-10 00:00N 35°58' W 017°41'612.8
2017-Oct-09 23:30N 35°58' W 017°48'612.8
2017-Oct-09 23:00N 35°57' W 017°56'712.8
2017-Oct-09 22:29N 35°57' W 018°05'612.6
2017-Oct-09 22:00N 35°57' W 018°12'712.6
2017-Oct-09 21:26N 35°57' W 018°21'512.6
2017-Oct-09 21:01N 35°58' W 018°28'612.5
2017-Oct-09 20:30N 35°58' W 018°35'612.4
2017-Oct-09 19:59N 35°58' W 018°43'25513.0
2017-Oct-09 00:25N 35°60' W 023°58'513.4
2017-Oct-09 00:00N 35°60' W 024°05'1113.4
2017-Oct-08 23:10N 35°60' W 024°19'213.3
2017-Oct-08 23:01N 35°60' W 024°22'713.3
2017-Oct-08 22:30N 35°60' W 024°30'713.4
2017-Oct-08 22:00N 35°60' W 024°38'713.4
2017-Oct-08 21:31N 36°00' W 024°46'713.4
2017-Oct-08 21:00N 36°00' W 024°55'713.3
2017-Oct-08 20:30N 35°60' W 025°03'713.5
2017-Oct-08 20:01N 35°58' W 025°11'713.5
2017-Oct-08 19:30N 35°56' W 025°19'713.5
2017-Oct-08 19:00N 35°55' W 025°27'713.7
2017-Oct-08 18:31N 35°53' W 025°35'713.4
2017-Oct-08 18:00N 35°52' W 025°43'713.4
2017-Oct-08 17:30N 35°50' W 025°51'713.2
2017-Oct-08 17:00N 35°49' W 025°60'  

Dump ship's entire track history